Main page


Airports :

Bournemouth, England

Bournemouth Airport

latitude: 50-47N, longitude: 001-50W, elevation: 11 m

Current weather observation

The report was made 1 hour and 19 minutes ago, at 21:50 UTC
Wind 10 kt from the South/Southwest
Temperature 8°C
Humidity 76%
Pressure 1012 hPa
Visibility 10 km or more
Overcast at a height of 3400 ft

METAR: EGHH 222150Z 21010KT 9999 OVC034 08/04 Q1012

Time: 23:09 (23:09 UTC)


The report was made 3 hours and 16 minutes ago, at 19:53 UTC
Forecast valid from 22 at 21 UTC to 23 at 06 UTC
Wind 12 kt from the South/Southwest
Visibility 10 km or more
Broken clouds at a height of 2500 ft
from 23 at 00 UTC to 23 at 06 UTC
Visibility: 6000 m
Broken clouds at a height of 900 ft
Probability 40% :
from 23 at 01 UTC to 23 at 06 UTC
Visibility: 4000 m
Broken clouds at a height of 400 ft
rain, drizzle

TAF: EGHH 221953Z 2221/2306 20012KT 9999 BKN025 TEMPO 2300/2306 6000 RA BKN009 PROB40 TEMPO 2301/2306 4000 RADZ BKN004

Weather observations and forecasts of more than 4000 airports (METAR and TAF reports).

The available stations are represented by yellow and red dots on the map.

Hover mouse over dot to see the name of the station.

Then click to see weather observations and forecasts.

To change the map : click on the green buttons with a black cross to zoom in, on the green button with a dash to zoom out, or on the green arrows for adjacent maps.